createdAt,value
2023-04-04T00:01:08.624Z,102457.78
2023-04-04T00:03:36.904Z,102454.25
2023-04-04T00:06:04.823Z,102456.34
2023-04-04T00:08:33.806Z,102456.56
2023-04-04T00:11:02.304Z,102453.63
2023-04-04T00:13:30.057Z,102453.88
2023-04-04T00:15:58.871Z,102450.66
2023-04-04T00:18:26.635Z,102450.84
2023-04-04T00:20:54.280Z,102449.03
2023-04-04T00:23:21.861Z,102454.28
2023-04-04T00:25:54.315Z,102451.72
2023-04-04T00:28:23.080Z,102455.22
2023-04-04T00:30:50.667Z,102450.72
2023-04-04T00:33:18.488Z,102455.75
2023-04-04T00:35:46.164Z,102454.44
2023-04-04T00:38:13.867Z,102462.91
2023-04-04T00:40:43.605Z,102454.66
2023-04-04T00:43:12.611Z,102448.22
2023-04-04T00:45:40.421Z,102450.78
2023-04-04T00:48:08.367Z,102448.22
2023-04-04T00:50:36.197Z,102451.22
2023-04-04T00:53:03.874Z,102445.69
2023-04-04T00:55:33.483Z,102452.78
2023-04-04T00:58:01.568Z,102447.31
2023-04-04T01:00:30.750Z,102450.41
2023-04-04T01:02:58.489Z,102450.63
2023-04-04T01:05:26.471Z,102452.78
2023-04-04T01:07:54.130Z,102452.34
2023-04-04T01:10:22.082Z,102447.97
2023-04-04T01:12:49.995Z,102452.06
2023-04-04T01:15:17.844Z,102454.94
2023-04-04T01:17:47.129Z,102444.66
2023-04-04T01:20:17.124Z,102441.34
2023-04-04T01:22:48.141Z,102447.13
2023-04-04T01:25:16.236Z,102443.38
2023-04-04T01:27:45.627Z,102445.31
2023-04-04T01:30:15.069Z,102444.44
2023-04-04T01:32:46.477Z,102448.28
2023-04-04T01:35:23.493Z,102446.38
2023-04-04T01:37:59.510Z,102438.00
2023-04-04T01:40:34.990Z,102439.09
2023-04-04T01:43:07.332Z,102437.06
2023-04-04T01:45:35.790Z,102437.91
2023-04-04T01:48:03.425Z,102432.22
2023-04-04T01:50:32.263Z,102435.13
2023-04-04T01:52:59.952Z,102430.50
2023-04-04T01:55:27.881Z,102424.84
2023-04-04T01:57:55.466Z,102424.97
2023-04-04T02:00:24.790Z,102427.75
2023-04-04T02:02:52.453Z,102423.88
2023-04-04T02:05:20.140Z,102429.25
2023-04-04T02:07:51.355Z,102415.84
2023-04-04T02:10:19.049Z,102419.81
2023-04-04T02:12:47.267Z,102420.78
2023-04-04T02:15:15.032Z,102423.25
2023-04-04T02:17:48.247Z,102428.28
2023-04-04T02:20:16.034Z,102419.63
2023-04-04T02:22:43.685Z,102423.44
2023-04-04T02:25:11.241Z,102420.88
2023-04-04T02:27:38.953Z,102414.78
2023-04-04T02:30:07.998Z,102404.41
2023-04-04T02:32:36.202Z,102413.19
2023-04-04T02:35:08.258Z,102412.72
2023-04-04T02:37:37.991Z,102404.50
2023-04-04T02:40:06.683Z,102402.69
2023-04-04T02:42:34.331Z,102398.09
2023-04-04T02:45:01.939Z,102398.81
2023-04-04T02:47:29.974Z,102395.84
2023-04-04T02:49:57.590Z,102389.72
2023-04-04T02:52:26.583Z,102397.31
2023-04-04T02:54:55.286Z,102393.25
2023-04-04T02:57:22.937Z,102385.66
2023-04-04T02:59:50.550Z,102383.50
2023-04-04T03:02:18.297Z,102378.50
2023-04-04T03:04:46.307Z,102378.50
2023-04-04T03:07:14.248Z,102377.72
2023-04-04T03:09:45.154Z,102374.31
2023-04-04T03:12:13.000Z,102384.50
2023-04-04T03:14:40.772Z,102374.75
2023-04-04T03:17:09.487Z,102379.88
2023-04-04T03:19:37.409Z,102371.84
2023-04-04T03:22:05.108Z,102368.31
2023-04-04T03:24:32.691Z,102367.38
2023-04-04T03:27:02.016Z,102371.09
2023-04-04T03:29:29.574Z,102360.72
2023-04-04T03:31:57.196Z,102357.84
2023-04-04T03:34:27.226Z,102358.81
2023-04-04T03:36:54.949Z,102357.72
2023-04-04T03:39:22.615Z,102363.50
2023-04-04T03:41:50.335Z,102361.69
2023-04-04T03:44:19.360Z,102363.94
2023-04-04T03:46:47.340Z,102366.41
2023-04-04T03:49:15.036Z,102366.50
2023-04-04T03:51:42.859Z,102357.97
2023-04-04T03:54:10.645Z,102361.13
2023-04-04T03:56:38.702Z,102360.63
2023-04-04T03:59:06.381Z,102350.66
2023-04-04T04:01:35.735Z,102347.47
2023-04-04T04:04:03.492Z,102347.66
2023-04-04T04:06:31.880Z,102346.50
2023-04-04T04:08:59.598Z,102352.59
2023-04-04T04:11:27.216Z,102348.00
2023-04-04T04:13:54.989Z,102353.78
2023-04-04T04:16:22.819Z,102346.28
2023-04-04T04:18:51.872Z,102346.50
2023-04-04T04:21:19.739Z,102350.88
2023-04-04T04:23:47.539Z,102353.03
2023-04-04T04:26:15.351Z,102357.72
2023-04-04T04:28:43.209Z,102356.44
2023-04-04T04:31:11.576Z,102354.06
2023-04-04T04:33:39.199Z,102356.31
2023-04-04T04:36:08.853Z,102351.28
2023-04-04T04:38:41.440Z,102345.09
2023-04-04T04:41:12.689Z,102351.63
2023-04-04T04:43:45.223Z,102353.78
2023-04-04T04:46:14.743Z,102353.22
2023-04-04T04:48:42.534Z,102352.59
2023-04-04T04:51:11.886Z,102351.84
2023-04-04T04:53:39.515Z,102354.53
2023-04-04T04:56:08.340Z,102350.34
2023-04-04T04:58:36.011Z,102355.78
2023-04-04T05:01:04.542Z,102355.72
2023-04-04T05:03:35.119Z,102349.38
2023-04-04T05:06:02.769Z,102362.66
2023-04-04T05:08:31.721Z,102361.69
2023-04-04T05:10:59.314Z,102361.78
2023-04-04T05:13:26.966Z,102369.72
2023-04-04T05:15:54.644Z,102368.63
2023-04-04T05:18:22.625Z,102370.59
2023-04-04T05:20:53.849Z,102375.38
2023-04-04T05:23:21.668Z,102381.03
2023-04-04T05:25:53.197Z,102383.19
2023-04-04T05:28:21.420Z,102386.19
2023-04-04T05:30:49.137Z,102391.53
2023-04-04T05:33:16.799Z,102388.75
2023-04-04T05:35:44.497Z,102387.78
2023-04-04T05:38:12.638Z,102390.47
2023-04-04T05:40:40.662Z,102392.09
2023-04-04T05:43:09.752Z,102391.00
2023-04-04T05:45:38.420Z,102391.56
2023-04-04T05:48:08.202Z,102397.75
2023-04-04T05:50:35.852Z,102400.53
2023-04-04T05:53:04.698Z,102394.34
2023-04-04T05:55:32.642Z,102398.41
2023-04-04T05:58:00.319Z,102394.78
2023-04-04T06:00:29.548Z,102394.31
2023-04-04T06:02:58.517Z,102402.16
2023-04-04T06:05:26.350Z,102398.09
2023-04-04T06:07:53.969Z,102405.78
2023-04-04T06:10:21.730Z,102396.81
2023-04-04T06:12:49.495Z,102399.50
2023-04-04T06:15:17.298Z,102411.25
2023-04-04T06:17:46.363Z,102402.81
2023-04-04T06:20:14.056Z,102401.81
2023-04-04T06:22:41.759Z,102405.88
2023-04-04T06:25:10.988Z,102403.75
2023-04-04T06:27:39.557Z,102406.63
2023-04-04T06:30:11.033Z,102403.34
2023-04-04T06:33:03.782Z,102410.59
2023-04-04T06:35:36.118Z,102405.66
2023-04-04T06:38:04.266Z,102408.69
2023-04-04T06:40:32.110Z,102408.03
2023-04-04T06:42:59.826Z,102411.88
2023-04-04T06:45:28.623Z,102414.13
2023-04-04T06:47:57.677Z,102412.09
2023-04-04T06:50:25.576Z,102408.59
2023-04-04T06:52:53.556Z,102406.13
2023-04-04T06:55:21.259Z,102413.38
2023-04-04T06:57:49.058Z,102409.00
2023-04-04T07:00:17.359Z,102410.81
2023-04-04T07:02:45.018Z,102412.84
2023-04-04T07:05:17.887Z,102414.66
2023-04-04T07:07:46.248Z,102411.88
2023-04-04T07:10:14.043Z,102414.75
2023-04-04T07:12:41.662Z,102419.44
2023-04-04T07:15:10.629Z,102407.34
2023-04-04T07:17:38.929Z,102411.16
2023-04-04T07:20:08.072Z,102408.84
2023-04-04T07:22:40.320Z,102406.50
2023-04-04T07:25:09.470Z,102414.47
2023-04-04T07:27:37.492Z,102415.19
2023-04-04T07:30:05.950Z,102424.53
2023-04-04T07:32:34.050Z,102421.31
2023-04-04T07:35:02.057Z,102423.22
2023-04-04T07:37:29.707Z,102423.06
2023-04-04T07:39:58.886Z,102424.25
2023-04-04T07:42:26.600Z,102419.81
2023-04-04T07:44:54.301Z,102420.25
2023-04-04T07:47:22.396Z,102417.00
2023-04-04T07:49:50.035Z,102414.50
2023-04-04T07:52:17.725Z,102419.47
2023-04-04T07:54:45.319Z,102418.41
2023-04-04T07:57:14.445Z,102417.19
2023-04-04T07:59:42.058Z,102410.09
2023-04-04T08:02:09.658Z,102403.63
2023-04-04T08:04:37.354Z,102414.38
2023-04-04T08:07:05.092Z,102401.22
2023-04-04T08:09:35.579Z,102406.63
2023-04-04T08:12:03.312Z,102402.31
2023-04-04T08:14:32.945Z,102399.53
2023-04-04T08:17:01.339Z,102395.13
2023-04-04T08:19:28.988Z,102391.72
2023-04-04T08:21:56.801Z,102400.50
2023-04-04T08:24:25.543Z,102388.53
2023-04-04T08:27:04.686Z,102390.25
2023-04-04T08:29:35.496Z,102392.44
2023-04-04T08:32:03.182Z,102389.63
2023-04-04T08:34:30.992Z,102386.59
2023-04-04T08:36:59.824Z,102382.81
2023-04-04T08:39:28.068Z,102386.69
2023-04-04T08:42:02.498Z,102377.66
2023-04-04T08:44:31.578Z,102379.00
2023-04-04T08:47:03.348Z,102378.59
2023-04-04T08:49:32.866Z,102380.94
2023-04-04T08:52:03.440Z,102374.72
2023-04-04T08:54:32.920Z,102383.53
2023-04-04T08:57:01.658Z,102384.38
2023-04-04T08:59:29.475Z,102379.13
2023-04-04T09:02:01.669Z,102378.16
2023-04-04T09:04:32.173Z,102363.22
2023-04-04T09:07:02.385Z,102369.81
2023-04-04T09:09:31.794Z,102373.19
2023-04-04T09:12:01.448Z,102375.66
2023-04-04T09:14:31.828Z,102368.94
2023-04-04T09:16:59.645Z,102366.41
2023-04-04T09:19:27.594Z,102367.50
2023-04-04T09:21:56.789Z,102366.75
2023-04-04T09:24:24.386Z,102366.50
2023-04-04T09:26:53.795Z,102364.41
2023-04-04T09:29:22.118Z,102362.53
2023-04-04T09:31:49.849Z,102355.53
2023-04-04T09:34:20.118Z,102362.56
2023-04-04T09:36:48.134Z,102355.44
2023-04-04T09:39:17.547Z,102358.28
2023-04-04T09:41:46.362Z,102363.34
2023-04-04T09:44:14.937Z,102353.44
2023-04-04T09:46:42.905Z,102355.72
2023-04-04T09:49:13.442Z,102350.63
2023-04-04T09:51:42.452Z,102350.28
2023-04-04T09:54:18.571Z,102356.47
2023-04-04T09:56:55.523Z,102360.88
2023-04-04T09:59:25.198Z,102371.75
2023-04-04T10:01:55.569Z,102371.13
2023-04-04T10:04:26.912Z,102367.53
2023-04-04T10:06:55.929Z,102369.03
2023-04-04T10:09:26.424Z,102368.56
2023-04-04T10:12:09.393Z,102375.16
2023-04-04T10:14:38.464Z,102360.50
2023-04-04T10:17:10.469Z,102361.06
2023-04-04T10:19:39.236Z,102353.19
2023-04-04T10:22:07.339Z,102360.84
2023-04-04T10:24:35.171Z,102350.44
2023-04-04T10:27:04.415Z,102353.41
2023-04-04T10:29:32.477Z,102354.91
2023-04-04T10:32:06.028Z,102344.16
2023-04-04T10:34:45.958Z,102348.75
2023-04-04T10:37:16.591Z,102348.31
2023-04-04T10:39:52.157Z,102341.69
2023-04-04T10:42:21.608Z,102339.28
2023-04-04T10:44:49.303Z,102335.47
2023-04-04T10:47:19.666Z,102331.34
2023-04-04T10:49:48.612Z,102332.84
2023-04-04T10:52:18.527Z,102329.19
2023-04-04T10:54:50.445Z,102325.19
2023-04-04T10:57:18.489Z,102310.91
2023-04-04T11:00:04.858Z,102309.94
2023-04-04T11:02:58.157Z,102309.28
2023-04-04T11:05:27.830Z,102307.63
2023-04-04T11:10:31.865Z,102302.31
2023-04-04T11:13:12.635Z,102305.41
2023-04-04T11:15:56.656Z,102297.66
2023-04-04T11:18:46.988Z,102290.00
2023-04-04T11:21:19.366Z,102288.84
2023-04-04T11:24:15.872Z,102292.75
2023-04-04T11:26:45.513Z,102284.03
2023-04-04T11:29:24.096Z,102283.69
2023-04-04T11:31:55.311Z,102278.38
2023-04-04T11:34:33.163Z,102277.31
2023-04-04T11:37:16.424Z,102284.75
2023-04-04T11:39:50.617Z,102270.56
2023-04-04T11:42:21.721Z,102270.50
2023-04-04T11:45:03.467Z,102260.56
2023-04-04T11:47:32.526Z,102259.53
2023-04-04T11:50:02.517Z,102256.75
2023-04-04T11:52:35.002Z,102253.78
2023-04-04T11:55:02.791Z,102247.03
2023-04-04T11:57:30.422Z,102249.75
2023-04-04T11:59:58.717Z,102241.94
2023-04-04T12:02:31.718Z,102237.97
2023-04-04T12:05:01.672Z,102238.97
2023-04-04T12:07:30.272Z,102237.81
2023-04-04T12:09:58.655Z,102236.44
2023-04-04T12:12:27.579Z,102231.19
2023-04-04T12:15:06.256Z,102219.53
2023-04-04T12:17:44.406Z,102220.66
2023-04-04T12:20:17.236Z,102222.78
2023-04-04T12:22:46.518Z,102218.63
2023-04-04T12:25:14.149Z,102217.47
2023-04-04T12:27:42.595Z,102215.19
2023-04-04T12:30:15.684Z,102212.84
2023-04-04T12:32:44.894Z,102195.16
2023-04-04T12:35:15.204Z,102195.25
2023-04-04T12:37:58.184Z,102194.84
2023-04-04T12:40:29.783Z,102201.31
2023-04-04T12:42:58.014Z,102187.72
2023-04-04T12:45:27.170Z,102182.44
2023-04-04T12:47:55.325Z,102182.69
2023-04-04T12:50:27.227Z,102187.94
2023-04-04T12:53:00.289Z,102182.81
2023-04-04T12:55:36.380Z,102178.03
2023-04-04T12:58:05.215Z,102169.38
2023-04-04T13:00:34.800Z,102178.53
2023-04-04T13:03:02.492Z,102164.78
2023-04-04T13:05:35.704Z,102167.63
2023-04-04T13:08:07.632Z,102167.31
2023-04-04T13:10:56.625Z,102162.00
2023-04-04T13:13:35.317Z,102149.78
2023-04-04T13:16:06.780Z,102151.78
2023-04-04T13:18:38.185Z,102147.63
2023-04-04T13:21:08.487Z,102137.66
2023-04-04T13:23:39.332Z,102138.16
2023-04-04T13:26:08.074Z,102133.72
2023-04-04T13:28:36.706Z,102129.25
2023-04-04T13:31:04.884Z,102125.22
2023-04-04T13:33:32.721Z,102129.88
2023-04-04T13:36:01.369Z,102122.38
2023-04-04T13:38:30.510Z,102124.38
2023-04-04T13:40:59.486Z,102110.50
2023-04-04T13:43:28.178Z,102111.56
2023-04-04T13:45:56.346Z,102091.69
2023-04-04T13:48:24.178Z,102094.19
2023-04-04T13:50:53.115Z,102083.16
2023-04-04T13:53:21.357Z,102090.53
2023-04-04T13:56:13.818Z,102091.59
2023-04-04T13:58:38.829Z,102085.25
2023-04-04T14:01:07.118Z,102089.88
2023-04-04T14:03:35.180Z,102080.94
2023-04-04T14:06:09.904Z,102088.16
2023-04-04T14:08:38.864Z,102075.75
2023-04-04T14:11:07.939Z,102071.78
2023-04-04T14:13:36.198Z,102071.88
2023-04-04T14:16:04.251Z,102070.97
2023-04-04T14:18:31.990Z,102071.59
2023-04-04T14:20:59.688Z,102064.22
2023-04-04T14:23:27.528Z,102065.09
2023-04-04T14:25:55.457Z,102061.88
2023-04-04T14:28:24.544Z,102057.53
2023-04-04T14:30:52.559Z,102056.84
2023-04-04T14:33:22.758Z,102061.25
2023-04-04T14:35:50.912Z,102061.00
2023-04-04T14:38:18.649Z,102059.47
2023-04-04T14:40:46.254Z,102053.78
2023-04-04T14:43:14.276Z,102055.91
2023-04-04T14:45:43.415Z,102052.81
2023-04-04T14:48:11.450Z,102053.44
2023-04-04T14:50:40.216Z,102049.06
2023-04-04T14:53:09.645Z,102051.69
2023-04-04T14:55:37.399Z,102053.53
2023-04-04T14:58:05.245Z,102057.63
2023-04-04T15:00:33.871Z,102045.19
2023-04-04T15:03:04.931Z,102052.72
2023-04-04T15:05:34.621Z,102050.44
2023-04-04T15:08:02.226Z,102048.00
2023-04-04T15:10:29.936Z,102047.84
2023-04-04T15:12:57.633Z,102043.97
2023-04-04T15:15:28.801Z,102050.09
2023-04-04T15:17:56.587Z,102041.19
2023-04-04T15:20:25.683Z,102043.34
2023-04-04T15:22:53.415Z,102035.66
2023-04-04T15:25:21.190Z,102038.34
2023-04-04T15:27:48.986Z,102044.81
2023-04-04T15:30:16.935Z,102036.13
2023-04-04T15:32:45.116Z,102032.44
2023-04-04T15:35:17.512Z,102023.84
2023-04-04T15:37:46.794Z,102022.78
2023-04-04T15:40:14.464Z,102025.94
2023-04-04T15:42:42.326Z,102023.13
2023-04-04T15:45:11.008Z,102015.53
2023-04-04T15:47:38.870Z,102007.59
2023-04-04T15:50:08.166Z,102009.69
2023-04-04T15:52:36.001Z,102009.97
2023-04-04T15:55:07.498Z,102000.72
2023-04-04T15:57:35.283Z,102011.25
2023-04-04T16:00:03.583Z,102003.81
2023-04-04T16:02:31.846Z,102003.72
2023-04-04T16:04:59.587Z,102004.28
2023-04-04T16:07:27.491Z,101999.72
2023-04-04T16:09:55.353Z,102000.34
2023-04-04T16:12:24.592Z,101996.41
2023-04-04T16:14:52.246Z,101999.25
2023-04-04T16:17:19.898Z,101991.47
2023-04-04T16:19:47.800Z,101990.47
2023-04-04T16:22:15.447Z,101996.22
2023-04-04T16:24:43.152Z,101993.84
2023-04-04T16:27:11.825Z,101990.31
2023-04-04T16:29:40.927Z,101988.13
2023-04-04T16:32:08.602Z,101989.69
2023-04-04T16:34:38.822Z,101983.13
2023-04-04T16:37:06.616Z,101987.69
2023-04-04T16:39:34.264Z,101990.56
2023-04-04T16:42:02.314Z,101991.16
2023-04-04T16:44:30.307Z,101986.16
2023-04-04T16:46:59.483Z,101986.06
2023-04-04T16:49:27.159Z,101982.66
2023-04-04T16:51:54.875Z,101982.25
2023-04-04T16:54:22.576Z,101977.25
2023-04-04T16:56:50.284Z,101975.88
2023-04-04T16:59:18.337Z,101976.56
2023-04-04T17:01:48.868Z,101980.06
2023-04-04T17:04:18.049Z,101978.81
2023-04-04T17:06:45.801Z,101977.59
2023-04-04T17:09:13.509Z,101979.84
2023-04-04T17:11:44.616Z,101975.56
2023-04-04T17:14:12.770Z,101974.88
2023-04-04T17:16:40.626Z,101976.91
2023-04-04T17:19:08.334Z,101974.47
2023-04-04T17:21:37.497Z,101978.94
2023-04-04T17:24:05.283Z,101976.66
2023-04-04T17:26:33.265Z,101973.84
2023-04-04T17:29:00.987Z,101971.53
2023-04-04T17:31:28.689Z,101978.72
2023-04-04T17:33:56.325Z,101978.16
2023-04-04T17:36:24.027Z,101980.44
2023-04-04T17:38:53.040Z,101974.88
2023-04-04T17:41:20.829Z,101979.94
2023-04-04T17:43:48.514Z,101975.69
2023-04-04T17:46:16.814Z,101972.72
2023-04-04T17:48:44.819Z,101974.25
2023-04-04T17:51:13.096Z,101971.88
2023-04-04T17:53:40.675Z,101966.94
2023-04-04T17:56:09.672Z,101974.78
2023-04-04T17:58:37.376Z,101979.19
2023-04-04T18:01:05.492Z,101973.69
2023-04-04T18:03:33.311Z,101972.66
2023-04-04T18:06:01.435Z,101970.72
2023-04-04T18:08:29.192Z,101970.47
2023-04-04T18:10:58.442Z,101969.59
2023-04-04T18:13:27.853Z,101975.41
2023-04-04T18:15:56.399Z,101971.88
2023-04-04T18:18:39.411Z,101975.88
2023-04-04T18:21:08.324Z,101971.47
2023-04-04T18:23:36.480Z,101962.28
2023-04-04T18:26:04.378Z,101974.19
2023-04-04T18:28:35.884Z,101977.88
2023-04-04T18:31:03.702Z,101982.25
2023-04-04T18:33:31.686Z,101971.88
2023-04-04T18:36:00.166Z,101964.78
2023-04-04T18:38:28.040Z,101964.09
2023-04-04T18:40:56.570Z,101969.91
2023-04-04T18:43:26.024Z,101966.34
2023-04-04T18:45:55.586Z,101964.50
2023-04-04T18:48:25.223Z,101967.06
2023-04-04T18:50:53.166Z,101968.91
2023-04-04T18:53:21.480Z,101969.19
2023-04-04T18:55:49.847Z,101970.59
2023-04-04T18:58:17.709Z,101967.63
2023-04-04T19:00:45.397Z,101970.59
2023-04-04T19:03:15.187Z,101968.34
2023-04-04T19:05:48.081Z,101969.50
2023-04-04T19:08:17.367Z,101972.34
2023-04-04T19:10:47.286Z,101983.94
2023-04-04T19:13:15.899Z,101985.66
2023-04-04T19:15:44.808Z,101987.38
2023-04-04T19:18:14.286Z,101983.78
2023-04-04T19:20:43.655Z,101978.97
2023-04-04T19:23:11.488Z,101981.66
2023-04-04T19:25:39.472Z,101978.97
2023-04-04T19:28:07.566Z,101969.50
2023-04-04T19:30:42.921Z,101974.03
2023-04-04T19:33:12.197Z,101964.25
2023-04-04T19:35:51.790Z,101983.94
2023-04-04T19:38:22.964Z,101965.38
2023-04-04T19:40:57.428Z,101979.84
2023-04-04T19:43:25.438Z,101979.84
2023-04-04T19:45:55.027Z,101968.78
2023-04-04T19:48:48.614Z,101975.28
2023-04-04T19:51:38.708Z,101973.00
2023-04-04T19:54:08.204Z,101967.31
2023-04-04T19:56:36.110Z,101975.09
2023-04-04T19:59:08.129Z,101970.72
2023-04-04T20:01:42.548Z,101968.16
2023-04-04T20:04:15.018Z,101964.22
2023-04-04T20:06:44.323Z,101970.06
2023-04-04T20:09:25.723Z,101970.19
2023-04-04T20:11:56.063Z,101967.78
2023-04-04T20:14:25.454Z,101978.88
2023-04-04T20:16:54.036Z,101973.63
2023-04-04T20:19:27.121Z,101975.03
2023-04-04T20:21:56.385Z,101980.59
2023-04-04T20:24:24.850Z,101976.06
2023-04-04T20:26:59.084Z,101985.00
2023-04-04T20:29:29.505Z,101985.53
2023-04-04T20:31:59.148Z,101978.06
2023-04-04T20:34:33.278Z,101976.50
2023-04-04T20:37:05.842Z,101979.59
2023-04-04T20:39:41.095Z,101978.63
2023-04-04T20:42:21.435Z,101979.47
2023-04-04T20:44:49.093Z,101981.03
2023-04-04T20:47:31.477Z,101983.59
2023-04-04T20:49:59.632Z,101979.47
2023-04-04T20:52:28.670Z,101983.16
2023-04-04T20:54:56.826Z,101982.03
2023-04-04T20:57:25.650Z,101977.19
2023-04-04T20:59:53.244Z,101984.59
2023-04-04T21:02:21.244Z,101989.25
2023-04-04T21:04:51.727Z,101977.78
2023-04-04T21:07:51.158Z,101988.41
2023-04-04T21:10:23.455Z,101980.91
2023-04-04T21:12:51.389Z,101987.56
2023-04-04T21:15:23.345Z,101974.94
2023-04-04T21:17:51.342Z,101982.44
2023-04-04T21:21:01.241Z,101972.50
2023-04-04T21:23:34.052Z,101983.28
2023-04-04T21:26:04.305Z,101981.03
2023-04-04T21:28:35.445Z,101977.75
2023-04-04T21:31:11.980Z,101979.16
2023-04-04T21:33:40.723Z,101975.50
2023-04-04T21:36:12.579Z,101974.19
2023-04-04T21:38:41.788Z,101971.38
2023-04-04T21:41:24.024Z,101977.47
2023-04-04T21:43:51.699Z,101972.78
2023-04-04T21:46:19.401Z,101966.81
2023-04-04T21:48:48.044Z,101966.81
2023-04-04T21:51:15.739Z,101971.06
2023-04-04T21:53:45.558Z,101971.50
2023-04-04T21:56:13.685Z,101962.44
2023-04-04T21:58:41.890Z,101960.88
2023-04-04T22:01:09.931Z,101967.38
2023-04-04T22:03:39.172Z,101967.69
2023-04-04T22:06:07.894Z,101967.53
2023-04-04T22:08:35.644Z,101957.91
2023-04-04T22:11:05.824Z,101959.72
2023-04-04T22:13:33.999Z,101964.25
2023-04-04T22:16:04.441Z,101949.81
2023-04-04T22:18:32.984Z,101956.19
2023-04-04T22:21:03.223Z,101955.66
2023-04-04T22:23:36.036Z,101950.13
2023-04-04T22:26:06.075Z,101960.75
2023-04-04T22:28:34.160Z,101957.50
2023-04-04T22:31:02.304Z,101949.53
2023-04-04T22:33:31.302Z,101952.09
2023-04-04T22:35:59.016Z,101957.47
2023-04-04T22:38:28.311Z,101955.22
2023-04-04T22:40:57.376Z,101947.13
2023-04-04T22:43:26.557Z,101950.09
2023-04-04T22:45:54.320Z,101951.09
2023-04-04T22:48:23.664Z,101944.41
2023-04-04T22:50:55.495Z,101953.59
2023-04-04T22:53:24.876Z,101945.81
2023-04-04T22:55:53.882Z,101948.94
2023-04-04T22:58:22.312Z,101944.78
2023-04-04T23:00:51.196Z,101941.25
2023-04-04T23:03:18.973Z,101941.41
2023-04-04T23:05:46.714Z,101938.72
2023-04-04T23:08:14.381Z,101934.31
2023-04-04T23:10:42.251Z,101929.09
2023-04-04T23:13:10.038Z,101925.94
2023-04-04T23:15:37.842Z,101928.16
2023-04-04T23:18:08.152Z,101925.63
2023-04-04T23:20:37.224Z,101925.03
2023-04-04T23:23:04.902Z,101921.06
2023-04-04T23:25:32.577Z,101925.00
2023-04-04T23:28:00.323Z,101917.94
2023-04-04T23:30:28.559Z,101912.97
2023-04-04T23:32:56.517Z,101923.38
2023-04-04T23:35:25.522Z,101920.97
2023-04-04T23:37:53.194Z,101914.63
2023-04-04T23:40:20.850Z,101911.06
2023-04-04T23:42:48.512Z,101911.94
2023-04-04T23:45:16.222Z,101913.91
2023-04-04T23:47:43.961Z,101920.53
2023-04-04T23:50:11.976Z,101918.97
2023-04-04T23:52:41.211Z,101915.72
2023-04-04T23:55:09.631Z,101907.19
2023-04-04T23:57:37.327Z,101906.34
